createdAt,value
2022-10-24T00:02:24.271Z,100.00
2022-10-24T00:04:50.689Z,100.00
2022-10-24T00:07:17.048Z,100.00
2022-10-24T00:09:43.821Z,100.00
2022-10-24T00:12:10.242Z,100.00
2022-10-24T00:14:36.855Z,100.00
2022-10-24T00:17:03.852Z,100.00
2022-10-24T00:19:30.229Z,100.00
2022-10-24T00:21:56.556Z,100.00
2022-10-24T00:24:25.089Z,100.00
2022-10-24T00:26:51.746Z,100.00
2022-10-24T00:29:18.252Z,100.00
2022-10-24T00:31:44.990Z,100.00
2022-10-24T00:34:11.564Z,100.00
2022-10-24T00:36:38.139Z,100.00
2022-10-24T00:39:04.582Z,100.00
2022-10-24T00:41:34.929Z,100.00
2022-10-24T00:44:14.553Z,100.00
2022-10-24T00:46:42.083Z,100.00
2022-10-24T00:49:12.301Z,100.00
2022-10-24T00:51:38.840Z,100.00
2022-10-24T00:54:08.712Z,100.00
2022-10-24T00:56:37.541Z,100.00
2022-10-24T00:59:05.151Z,100.00
2022-10-24T01:01:31.875Z,100.00
2022-10-24T01:03:58.293Z,100.00
2022-10-24T01:06:27.418Z,100.00
2022-10-24T01:09:09.159Z,100.00
2022-10-24T01:11:41.661Z,100.00
2022-10-24T01:14:07.974Z,100.00
2022-10-24T01:16:41.973Z,100.00
2022-10-24T01:19:11.303Z,100.00
2022-10-24T01:21:42.144Z,100.00
2022-10-24T01:24:27.459Z,100.00
2022-10-24T01:27:03.236Z,100.00
2022-10-24T01:29:48.064Z,100.00
2022-10-24T01:32:14.429Z,100.00
2022-10-24T01:34:44.686Z,100.00
2022-10-24T01:37:18.044Z,100.00
2022-10-24T01:39:47.206Z,100.00
2022-10-24T01:42:14.957Z,100.00
2022-10-24T01:44:44.035Z,100.00
2022-10-24T01:47:18.524Z,100.00
2022-10-24T01:49:48.593Z,100.00
2022-10-24T01:52:16.168Z,100.00
2022-10-24T01:54:43.582Z,100.00
2022-10-24T01:57:11.209Z,100.00
2022-10-24T01:59:40.536Z,100.00
2022-10-24T02:02:13.298Z,100.00
2022-10-24T02:04:43.641Z,100.00
2022-10-24T02:07:12.035Z,100.00
2022-10-24T02:09:39.864Z,100.00
2022-10-24T02:12:08.810Z,100.00
2022-10-24T02:14:39.441Z,100.00
2022-10-24T02:17:06.070Z,100.00
2022-10-24T02:19:32.884Z,100.00
2022-10-24T02:22:07.258Z,100.00
2022-10-24T02:24:38.366Z,100.00
2022-10-24T02:27:08.055Z,100.00
2022-10-24T02:29:38.803Z,100.00
2022-10-24T02:32:07.499Z,100.00
2022-10-24T02:34:38.425Z,100.00
2022-10-24T02:37:05.998Z,100.00
2022-10-24T02:39:34.027Z,100.00
2022-10-24T02:42:01.876Z,100.00
2022-10-24T02:44:29.071Z,100.00
2022-10-24T02:46:57.112Z,100.00
2022-10-24T02:49:29.807Z,100.00
2022-10-24T02:51:56.529Z,100.00
2022-10-24T02:54:23.217Z,100.00
2022-10-24T02:56:52.981Z,100.00
2022-10-24T02:59:19.405Z,100.00
2022-10-24T03:01:45.775Z,100.00
2022-10-24T03:04:12.407Z,100.00
2022-10-24T03:06:38.735Z,100.00
2022-10-24T03:09:05.072Z,100.00
2022-10-24T03:11:31.578Z,100.00
2022-10-24T03:13:57.939Z,100.00
2022-10-24T03:16:24.999Z,100.00
2022-10-24T03:18:51.398Z,100.00
2022-10-24T03:21:17.752Z,100.00
2022-10-24T03:23:44.128Z,100.00
2022-10-24T03:26:10.624Z,100.00
2022-10-24T03:28:37.127Z,100.00
2022-10-24T03:31:03.828Z,100.00
2022-10-24T03:33:30.260Z,100.00
2022-10-24T03:35:56.710Z,100.00
2022-10-24T03:38:23.371Z,100.00
2022-10-24T03:40:50.460Z,100.00
2022-10-24T03:43:17.394Z,100.00
2022-10-24T03:45:43.788Z,100.00
2022-10-24T03:48:10.628Z,100.00
2022-10-24T03:50:37.090Z,100.00
2022-10-24T03:53:03.804Z,100.00
2022-10-24T03:55:30.222Z,100.00
2022-10-24T03:57:56.756Z,100.00
2022-10-24T04:00:23.707Z,100.00
2022-10-24T04:02:51.612Z,100.00
2022-10-24T04:05:18.091Z,100.00
2022-10-24T04:07:44.682Z,100.00
2022-10-24T04:10:11.488Z,100.00
2022-10-24T04:12:37.973Z,100.00
2022-10-24T04:15:05.232Z,100.00
2022-10-24T04:17:31.779Z,100.00
2022-10-24T04:19:58.307Z,100.00
2022-10-24T04:22:26.949Z,100.00
2022-10-24T04:24:53.723Z,100.00
2022-10-24T04:27:20.241Z,100.00
2022-10-24T04:29:47.573Z,100.00
2022-10-24T04:32:14.299Z,100.00
2022-10-24T04:34:40.700Z,100.00
2022-10-24T04:37:07.087Z,100.00
2022-10-24T04:39:33.597Z,100.00
2022-10-24T04:41:59.989Z,100.00
2022-10-24T04:44:26.467Z,100.00
2022-10-24T04:46:52.954Z,100.00
2022-10-24T04:49:19.790Z,100.00
2022-10-24T04:51:46.199Z,100.00
2022-10-24T04:54:12.708Z,100.00
2022-10-24T04:56:39.085Z,100.00
2022-10-24T04:59:05.733Z,100.00
2022-10-24T05:01:32.197Z,100.00
2022-10-24T05:03:58.901Z,100.00
2022-10-24T05:06:25.449Z,100.00
2022-10-24T05:08:51.889Z,100.00
2022-10-24T05:11:18.323Z,100.00
2022-10-24T05:13:44.829Z,100.00
2022-10-24T05:16:11.208Z,100.00
2022-10-24T05:18:37.700Z,100.00
2022-10-24T05:21:04.174Z,100.00
2022-10-24T05:23:30.571Z,100.00
2022-10-24T05:25:57.028Z,100.00
2022-10-24T05:28:23.430Z,100.00
2022-10-24T05:30:49.954Z,100.00
2022-10-24T05:33:16.354Z,100.00
2022-10-24T05:35:42.912Z,100.00
2022-10-24T05:38:09.443Z,100.00
2022-10-24T05:40:35.831Z,100.00
2022-10-24T05:43:02.239Z,100.00
2022-10-24T05:45:28.704Z,100.00
2022-10-24T05:47:55.084Z,100.00
2022-10-24T05:50:21.923Z,100.00
2022-10-24T05:52:48.937Z,100.00
2022-10-24T05:55:17.940Z,100.00
2022-10-24T05:57:45.905Z,100.00
2022-10-24T06:00:13.501Z,100.00
2022-10-24T06:02:40.204Z,100.00
2022-10-24T06:05:07.117Z,100.00
2022-10-24T06:07:33.661Z,100.00
2022-10-24T06:10:00.142Z,100.00
2022-10-24T06:12:26.723Z,100.00
2022-10-24T06:14:56.907Z,100.00
2022-10-24T06:17:23.486Z,100.00
2022-10-24T06:19:51.101Z,100.00
2022-10-24T06:22:18.337Z,100.00
2022-10-24T06:24:45.098Z,100.00
2022-10-24T06:27:11.933Z,100.00
2022-10-24T06:29:38.395Z,100.00
2022-10-24T06:32:04.868Z,100.00
2022-10-24T06:34:31.389Z,100.00
2022-10-24T06:36:57.776Z,100.00
2022-10-24T06:39:24.782Z,100.00
2022-10-24T06:41:51.199Z,100.00
2022-10-24T06:44:17.625Z,100.00
2022-10-24T06:46:44.198Z,100.00
2022-10-24T06:49:11.703Z,100.00
2022-10-24T06:51:39.235Z,100.00
2022-10-24T06:54:05.657Z,100.00
2022-10-24T06:56:32.200Z,100.00
2022-10-24T06:58:58.598Z,100.00
2022-10-24T07:01:26.248Z,100.00
2022-10-24T07:03:52.964Z,100.00
2022-10-24T07:06:24.088Z,100.00
2022-10-24T07:08:51.684Z,100.00
2022-10-24T07:11:18.190Z,100.00
2022-10-24T07:13:44.658Z,100.00
2022-10-24T07:16:11.169Z,100.00
2022-10-24T07:18:37.849Z,100.00
2022-10-24T07:21:05.424Z,100.00
2022-10-24T07:23:32.715Z,100.00
2022-10-24T07:26:03.584Z,100.00
2022-10-24T07:28:30.014Z,100.00
2022-10-24T07:30:56.438Z,100.00
2022-10-24T07:33:23.000Z,100.00
2022-10-24T07:35:49.424Z,100.00
2022-10-24T07:38:17.932Z,100.00
2022-10-24T07:40:45.296Z,100.00
2022-10-24T07:43:11.873Z,100.00
2022-10-24T07:45:39.134Z,100.00
2022-10-24T07:48:06.704Z,100.00
2022-10-24T07:50:33.925Z,100.00
2022-10-24T07:53:00.731Z,100.00
2022-10-24T07:55:27.270Z,100.00
2022-10-24T07:57:54.038Z,100.00
2022-10-24T08:00:20.599Z,100.00
2022-10-24T08:02:47.181Z,100.00
2022-10-24T08:05:13.657Z,100.00
2022-10-24T08:07:40.110Z,100.00
2022-10-24T08:10:09.495Z,100.00
2022-10-24T08:12:35.948Z,100.00
2022-10-24T08:15:02.894Z,100.00
2022-10-24T08:17:29.362Z,100.00
2022-10-24T08:19:55.933Z,100.00
2022-10-24T08:22:22.351Z,100.00
2022-10-24T08:24:48.837Z,100.00
2022-10-24T08:27:15.258Z,100.00
2022-10-24T08:29:41.715Z,100.00
2022-10-24T08:32:08.202Z,100.00
2022-10-24T08:34:34.669Z,100.00
2022-10-24T08:37:01.065Z,100.00
2022-10-24T08:39:27.501Z,100.00
2022-10-24T08:42:00.315Z,100.00
2022-10-24T08:44:37.789Z,100.00
2022-10-24T08:47:04.233Z,100.00
2022-10-24T08:49:41.057Z,100.00
2022-10-24T08:52:17.691Z,100.00
2022-10-24T08:54:45.814Z,100.00
2022-10-24T09:00:13.229Z,100.00
2022-10-24T09:02:44.185Z,100.00
2022-10-24T09:05:13.963Z,100.00
2022-10-24T09:07:43.362Z,100.00
2022-10-24T09:10:18.941Z,100.00
2022-10-24T09:12:45.384Z,100.00
2022-10-24T09:15:16.875Z,100.00
2022-10-24T09:17:44.008Z,100.00
2022-10-24T09:20:13.914Z,100.00
2022-10-24T09:22:43.498Z,100.00
2022-10-24T09:25:21.757Z,100.00
2022-10-24T09:27:48.622Z,100.00
2022-10-24T09:30:20.199Z,98.82
2022-10-24T09:32:46.943Z,99.40
2022-10-24T09:35:21.628Z,99.65
2022-10-24T09:37:58.863Z,97.39
2022-10-24T09:40:30.147Z,98.54
2022-10-24T09:43:16.872Z,98.80
2022-10-24T09:45:48.408Z,99.64
2022-10-24T09:48:17.946Z,100.00
2022-10-24T09:50:45.779Z,100.00
2022-10-24T09:53:24.555Z,100.00
2022-10-24T09:55:53.199Z,100.00
2022-10-24T09:58:21.260Z,100.00
2022-10-24T10:01:14.201Z,95.92
2022-10-24T10:03:40.766Z,96.92
2022-10-24T10:06:18.806Z,97.01
2022-10-24T10:08:52.486Z,96.68
2022-10-24T10:11:26.526Z,97.27
2022-10-24T10:13:55.146Z,95.50
2022-10-24T10:16:24.036Z,95.29
2022-10-24T10:18:51.517Z,94.12
2022-10-24T10:21:26.955Z,93.44
2022-10-24T10:23:55.138Z,93.88
2022-10-24T10:26:23.296Z,91.57
2022-10-24T10:28:57.466Z,92.23
2022-10-24T10:31:27.238Z,92.49
2022-10-24T10:33:56.744Z,92.51
2022-10-24T10:36:27.967Z,93.08
2022-10-24T10:39:02.589Z,93.09
2022-10-24T10:41:34.021Z,92.73
2022-10-24T10:44:19.351Z,92.04
2022-10-24T10:46:45.851Z,93.14
2022-10-24T10:49:18.161Z,93.16
2022-10-24T10:51:52.400Z,93.67
2022-10-24T10:54:30.868Z,93.94
2022-10-24T10:57:03.085Z,94.06
2022-10-24T10:59:35.304Z,92.92
2022-10-24T11:02:02.033Z,92.95
2022-10-24T11:04:47.302Z,93.64
2022-10-24T11:07:23.135Z,93.99
2022-10-24T11:09:50.918Z,93.54
2022-10-24T11:12:19.257Z,92.97
2022-10-24T11:14:49.177Z,93.24
2022-10-24T11:17:24.339Z,92.30
2022-10-24T11:19:57.167Z,90.94
2022-10-24T11:22:25.922Z,91.73
2022-10-24T11:24:55.944Z,91.03
2022-10-24T11:27:26.568Z,91.09
2022-10-24T11:30:00.707Z,91.34
2022-10-24T11:32:34.347Z,87.54
2022-10-24T11:35:05.276Z,88.00
2022-10-24T11:37:34.105Z,89.41
2022-10-24T11:40:20.837Z,89.42
2022-10-24T11:42:47.765Z,88.98
2022-10-24T11:45:17.247Z,88.41
2022-10-24T11:48:11.180Z,88.94
2022-10-24T11:50:47.388Z,89.51
2022-10-24T11:53:13.860Z,85.76
2022-10-24T11:55:47.151Z,86.05
2022-10-24T11:58:15.248Z,86.88
2022-10-24T12:00:42.137Z,87.55
2022-10-24T12:03:18.886Z,88.33
2022-10-24T12:06:04.152Z,89.27
2022-10-24T12:08:44.001Z,86.60
2022-10-24T12:11:33.423Z,85.45
2022-10-24T12:16:49.874Z,80.72
2022-10-24T12:19:17.900Z,80.05
2022-10-24T12:21:52.423Z,80.84
2022-10-24T12:24:21.730Z,80.61
2022-10-24T12:26:54.581Z,79.69
2022-10-24T12:29:24.005Z,79.72
2022-10-24T12:31:50.643Z,80.00
2022-10-24T12:34:17.037Z,80.31
2022-10-24T12:37:02.143Z,80.61
2022-10-24T12:39:29.493Z,81.40
2022-10-24T12:41:56.641Z,81.89
2022-10-24T12:44:37.259Z,82.97
2022-10-24T12:47:22.195Z,81.20
2022-10-24T12:49:51.931Z,83.34
2022-10-24T12:52:30.839Z,83.74
2022-10-24T12:54:57.862Z,82.63
2022-10-24T12:57:35.787Z,82.86
2022-10-24T13:00:02.370Z,83.55
2022-10-24T13:02:31.589Z,84.58
2022-10-24T13:05:06.964Z,86.24
2022-10-24T13:07:36.399Z,88.35
2022-10-24T13:10:26.114Z,89.26
2022-10-24T13:13:06.135Z,89.72
2022-10-24T13:15:35.638Z,90.78
2022-10-24T13:18:14.611Z,91.42
2022-10-24T13:20:43.572Z,91.71
2022-10-24T13:23:15.899Z,91.51
2022-10-24T13:25:42.929Z,92.00
2022-10-24T13:28:24.556Z,92.06
2022-10-24T13:31:00.160Z,92.13
2022-10-24T13:33:29.402Z,92.14
2022-10-24T13:36:17.641Z,89.04
2022-10-24T13:38:51.230Z,83.16
2022-10-24T13:41:21.136Z,82.49
2022-10-24T13:43:49.702Z,84.09
2022-10-24T13:46:28.160Z,84.59
2022-10-24T13:48:55.145Z,85.14
2022-10-24T13:51:29.118Z,85.37
2022-10-24T13:54:07.028Z,81.18
2022-10-24T13:56:36.828Z,76.33
2022-10-24T13:59:03.514Z,76.25
2022-10-24T14:01:31.275Z,77.06
2022-10-24T14:03:58.509Z,77.88
2022-10-24T14:06:26.073Z,73.40
2022-10-24T14:09:05.468Z,71.40
2022-10-24T14:11:33.446Z,68.69
2022-10-24T14:14:06.021Z,69.49
2022-10-24T14:16:34.132Z,69.84
2022-10-24T14:19:36.157Z,69.59
2022-10-24T14:22:03.898Z,71.10
2022-10-24T14:24:30.695Z,70.42
2022-10-24T14:26:58.791Z,72.74
2022-10-24T14:29:25.319Z,71.42
2022-10-24T14:32:14.366Z,72.34
2022-10-24T14:34:40.953Z,72.65
2022-10-24T14:37:08.775Z,72.82
2022-10-24T14:39:36.856Z,73.97
2022-10-24T14:42:03.454Z,75.02
2022-10-24T14:44:30.059Z,76.29
2022-10-24T14:47:07.104Z,76.98
2022-10-24T14:49:36.768Z,78.17
2022-10-24T14:52:10.793Z,78.40
2022-10-24T14:54:38.093Z,79.18
2022-10-24T14:57:07.444Z,78.65
2022-10-24T14:59:39.732Z,78.94
2022-10-24T15:02:15.530Z,79.59
2022-10-24T15:04:46.100Z,80.15
2022-10-24T15:07:14.337Z,80.51
2022-10-24T15:09:57.613Z,80.33
2022-10-24T15:12:30.954Z,78.41
2022-10-24T15:14:59.612Z,80.45
2022-10-24T15:17:32.978Z,79.93
2022-10-24T15:20:12.716Z,79.25
2022-10-24T15:22:39.691Z,79.96
2022-10-24T15:27:48.416Z,80.84
2022-10-24T15:30:16.113Z,80.88
2022-10-24T15:32:43.027Z,80.89
2022-10-24T15:35:09.461Z,80.25
2022-10-24T15:37:36.140Z,80.37
2022-10-24T15:40:03.960Z,80.42
2022-10-24T15:42:30.361Z,80.43
2022-10-24T15:44:56.766Z,81.04
2022-10-24T15:47:24.452Z,81.77
2022-10-24T15:49:53.866Z,81.38
2022-10-24T15:52:20.390Z,80.46
2022-10-24T15:54:46.867Z,80.82
2022-10-24T15:57:13.798Z,81.06
2022-10-24T15:59:40.324Z,81.41
2022-10-24T16:02:12.782Z,81.75
2022-10-24T16:04:40.348Z,82.37
2022-10-24T16:07:06.881Z,83.05
2022-10-24T16:09:33.298Z,82.54
2022-10-24T16:11:59.686Z,81.79
2022-10-24T16:14:26.249Z,81.96
2022-10-24T16:16:55.058Z,82.17
2022-10-24T16:19:21.752Z,81.76
2022-10-24T16:21:48.155Z,82.23
2022-10-24T16:24:14.623Z,82.14
2022-10-24T16:26:41.286Z,81.94
2022-10-24T16:29:07.732Z,82.48
2022-10-24T16:31:34.185Z,82.86
2022-10-24T16:34:00.661Z,82.86
2022-10-24T16:36:27.275Z,83.28
2022-10-24T16:38:53.733Z,82.35
2022-10-24T16:41:21.740Z,81.89
2022-10-24T16:43:49.892Z,82.65
2022-10-24T16:46:20.702Z,83.29
2022-10-24T16:48:47.411Z,83.44
2022-10-24T16:51:15.954Z,84.22
2022-10-24T16:53:42.674Z,84.57
2022-10-24T16:56:10.295Z,85.49
2022-10-24T16:58:37.103Z,85.76
2022-10-24T17:01:05.003Z,86.50
2022-10-24T17:03:31.573Z,86.70
2022-10-24T17:05:58.038Z,87.13
2022-10-24T17:08:24.626Z,87.49
2022-10-24T17:10:51.078Z,87.96
2022-10-24T17:13:17.616Z,88.16
2022-10-24T17:15:44.026Z,89.05
2022-10-24T17:18:10.477Z,89.32
2022-10-24T17:20:36.886Z,89.64
2022-10-24T17:23:05.769Z,90.35
2022-10-24T17:25:33.056Z,90.79
2022-10-24T17:27:59.544Z,90.96
2022-10-24T17:30:26.930Z,91.21
2022-10-24T17:32:53.688Z,91.46
2022-10-24T17:35:21.372Z,92.20
2022-10-24T17:38:06.269Z,92.65
2022-10-24T17:40:52.882Z,92.99
2022-10-24T17:43:23.735Z,93.37
2022-10-24T17:45:50.497Z,93.78
2022-10-24T17:48:17.142Z,94.13
2022-10-24T17:50:43.650Z,94.52
2022-10-24T17:53:17.673Z,94.83
2022-10-24T17:55:46.788Z,94.78
2022-10-24T17:58:14.198Z,94.95
2022-10-24T18:00:40.679Z,95.51
2022-10-24T18:03:08.741Z,95.37
2022-10-24T18:05:38.074Z,95.40
2022-10-24T18:08:06.023Z,95.47
2022-10-24T18:10:32.492Z,95.75
2022-10-24T18:15:25.257Z,95.99
2022-10-24T18:17:51.678Z,96.39
2022-10-24T18:20:19.084Z,96.44
2022-10-24T18:22:45.957Z,97.01
2022-10-24T18:25:13.525Z,97.06
2022-10-24T18:27:41.309Z,97.18
2022-10-24T18:30:08.461Z,97.21
2022-10-24T18:32:35.155Z,97.29
2022-10-24T18:35:01.573Z,97.77
2022-10-24T18:37:28.089Z,98.05
2022-10-24T18:39:54.887Z,98.52
2022-10-24T18:42:25.097Z,98.22
2022-10-24T18:44:52.050Z,98.65
2022-10-24T18:47:21.979Z,99.03
2022-10-24T18:49:51.488Z,98.81
2022-10-24T18:52:17.979Z,99.24
2022-10-24T18:55:03.978Z,99.64
2022-10-24T18:57:31.816Z,99.59
2022-10-24T18:59:59.759Z,99.88
2022-10-24T19:02:29.350Z,100.00
2022-10-24T19:05:05.074Z,100.00
2022-10-24T19:07:31.564Z,100.00
2022-10-24T19:09:58.053Z,100.00
2022-10-24T19:12:24.550Z,100.00
2022-10-24T19:14:51.079Z,100.00
2022-10-24T19:17:17.564Z,100.00
2022-10-24T19:19:44.044Z,100.00
2022-10-24T19:22:10.599Z,100.00
2022-10-24T19:24:37.087Z,100.00
2022-10-24T19:27:03.516Z,100.00
2022-10-24T19:29:29.936Z,100.00
2022-10-24T19:31:56.500Z,100.00
2022-10-24T19:34:22.942Z,100.00
2022-10-24T19:36:50.029Z,100.00
2022-10-24T19:39:16.429Z,100.00
2022-10-24T19:41:42.807Z,100.00
2022-10-24T19:44:09.227Z,100.00
2022-10-24T19:46:35.571Z,100.00
2022-10-24T19:49:01.982Z,100.00
2022-10-24T19:51:28.619Z,100.00
2022-10-24T19:53:57.079Z,100.00
2022-10-24T19:56:26.169Z,100.00
2022-10-24T19:58:53.141Z,100.00
2022-10-24T20:01:21.449Z,100.00
2022-10-24T20:03:48.773Z,100.00
2022-10-24T20:06:15.521Z,100.00
2022-10-24T20:08:41.954Z,100.00
2022-10-24T20:11:08.650Z,100.00
2022-10-24T20:13:35.112Z,100.00
2022-10-24T20:16:03.942Z,100.00
2022-10-24T20:18:31.063Z,100.00
2022-10-24T20:20:57.781Z,100.00
2022-10-24T20:23:24.768Z,100.00
2022-10-24T20:26:20.496Z,100.00
2022-10-24T20:28:48.423Z,100.00
2022-10-24T20:31:25.597Z,100.00
2022-10-24T20:33:52.251Z,100.00
2022-10-24T20:36:20.787Z,100.00
2022-10-24T20:38:47.222Z,100.00
2022-10-24T20:41:13.714Z,100.00
2022-10-24T20:43:40.174Z,100.00
2022-10-24T20:46:06.638Z,100.00
2022-10-24T20:48:33.541Z,100.00
2022-10-24T20:51:11.136Z,100.00
2022-10-24T20:53:37.733Z,100.00
2022-10-24T20:56:08.331Z,100.00
2022-10-24T20:58:38.626Z,100.00
2022-10-24T21:01:09.203Z,100.00
2022-10-24T21:03:36.403Z,100.00
2022-10-24T21:06:03.317Z,100.00
2022-10-24T21:08:29.994Z,100.00
2022-10-24T21:10:56.374Z,100.00
2022-10-24T21:13:22.790Z,100.00
2022-10-24T21:15:54.571Z,100.00
2022-10-24T21:18:20.916Z,100.00
2022-10-24T21:20:47.285Z,100.00
2022-10-24T21:23:13.711Z,100.00
2022-10-24T21:25:40.075Z,100.00
2022-10-24T21:28:06.447Z,100.00
2022-10-24T21:30:33.647Z,100.00
2022-10-24T21:33:00.083Z,100.00
2022-10-24T21:35:26.597Z,100.00
2022-10-24T21:37:53.714Z,100.00
2022-10-24T21:40:20.073Z,100.00
2022-10-24T21:42:46.837Z,100.00
2022-10-24T21:45:13.431Z,100.00
2022-10-24T21:47:39.847Z,100.00
2022-10-24T21:50:06.419Z,100.00
2022-10-24T21:52:33.253Z,100.00
2022-10-24T21:54:59.663Z,100.00
2022-10-24T21:57:27.835Z,100.00
2022-10-24T21:59:54.209Z,100.00
2022-10-24T22:02:20.953Z,100.00
2022-10-24T22:04:47.484Z,100.00
2022-10-24T22:07:13.886Z,100.00
2022-10-24T22:09:40.358Z,100.00
2022-10-24T22:12:06.810Z,100.00
2022-10-24T22:14:33.322Z,100.00
2022-10-24T22:16:59.799Z,100.00
2022-10-24T22:19:26.251Z,100.00
2022-10-24T22:21:52.669Z,100.00
2022-10-24T22:24:20.595Z,100.00
2022-10-24T22:26:47.673Z,100.00
2022-10-24T22:29:15.621Z,100.00
2022-10-24T22:31:42.307Z,100.00
2022-10-24T22:34:11.094Z,100.00
2022-10-24T22:36:43.891Z,100.00
2022-10-24T22:39:17.900Z,100.00
2022-10-24T22:41:45.059Z,100.00
2022-10-24T22:44:12.855Z,100.00
2022-10-24T22:46:42.304Z,100.00
2022-10-24T22:49:14.789Z,100.00
2022-10-24T22:51:41.391Z,100.00
2022-10-24T22:54:13.966Z,100.00
2022-10-24T22:56:40.605Z,100.00
2022-10-24T22:59:07.196Z,100.00
2022-10-24T23:01:58.274Z,100.00
2022-10-24T23:04:35.565Z,100.00
2022-10-24T23:07:07.292Z,100.00
2022-10-24T23:09:33.702Z,100.00
2022-10-24T23:12:00.460Z,100.00
2022-10-24T23:14:27.063Z,100.00
2022-10-24T23:16:56.923Z,100.00
2022-10-24T23:19:29.806Z,100.00
2022-10-24T23:21:58.084Z,100.00
2022-10-24T23:24:24.942Z,100.00
2022-10-24T23:27:09.777Z,100.00
2022-10-24T23:29:36.349Z,100.00
2022-10-24T23:32:03.662Z,100.00
2022-10-24T23:34:30.693Z,100.00
2022-10-24T23:37:00.092Z,100.00
2022-10-24T23:39:31.849Z,100.00
2022-10-24T23:41:58.443Z,100.00
2022-10-24T23:44:25.075Z,100.00
2022-10-24T23:46:57.143Z,100.00
2022-10-24T23:49:36.264Z,100.00
2022-10-24T23:52:02.667Z,100.00
2022-10-24T23:54:31.082Z,100.00
2022-10-24T23:56:57.934Z,100.00
2022-10-24T23:59:24.405Z,100.00
